Batavia, OH (45103)

12:50 AM EST on January 26, 2015 (GMT -0500)
Pleasant Acres | Change Station
CLOSE
Current Station
Personal Weather Station
Location: Batavia, OH
Elevation: 843 ft
Nearby Weather Stations

Elev 843 ft 39.07 °N, 84.15 °W | Updated 50 seconds ago

Snow
Snow
30.7 °F
Feels Like 31 °F
N
2.0
Wind Variable Wind from NW
Gusts 2.0 mph

Today
High -- | Low -- °F
--% Chance of Precip.
Yesterday
High -- | Low -- °F
Precip. -- in
7:48 AM 5:50 PM
Waxing Crescent, 39% visible
Pressure 29.70 in
Visibility 3.0 miles
Clouds Overcast 500 ft
Windchill 31 °F
Dew Point 29 °F
Humidity 94%
Rainfall 0.00 in
Snow Depth Not available.
UV 0 out of 12
Pollen .10 out of 12
Air Quality Not available.
Flu Activity Not available.
METAR KI69 260537Z AUTO 03010G15KT 3SM -SN OVC005 00/00 A2970 RMK AO1

More Conditions Fewer Conditions

Pressure 29.70 in
Visibility 3.0 miles
Clouds Overcast 500 ft
Windchill 31 °F
Dew Point 29 °F
Humidity 94%
Rainfall 0.00 in
Snow Depth Not available.
UV 0 out of 12
Pollen .10 out of 12
Air Quality Not available.
Flu Activity Not available.
METAR KI69 260537Z AUTO 03010G15KT 3SM -SN OVC005 00/00 A2970 RMK AO1

More Conditions Fewer Conditions

10-Day Weather Forecast

Almanac

Astronomy

Jan. 26, 2015 Rise Set
Actual Time
Civil Twilight
Nautical Twilight
Astronomical Twilight
Moon
Length of Visible Light
Length of Day
Tomorrow will be .
, % of the Moon is Illuminated

Today's Extremes

State Highs State Lows

Community

WunderPhotos

Upload Photos

1,790,155 photos uploaded!

WunderBlogs® & News

Nearby

Air Quality

  Air Quality AQ Index Pollutant
Not available.

Snow Depth

Station Depth Elevation

Earthquake Activity

City Distance Mag. Time & Date
Minimum magnitude displayed is 2.5.

Coastal Water Temperatures

Place Temperature

Nearby Weather Stations